createdAt,value
2019-03-30T00:01:26.940Z,21.57
2019-03-30T00:06:45.570Z,20.37
2019-03-30T00:11:59.628Z,24.50
2019-03-30T00:17:24.009Z,25.03
2019-03-30T00:22:41.561Z,23.33
2019-03-30T00:27:59.889Z,22.80
2019-03-30T00:33:20.546Z,21.10
2019-03-30T00:38:38.532Z,20.00
2019-03-30T00:43:58.937Z,21.57
2019-03-30T00:49:22.211Z,22.97
2019-03-30T00:54:29.963Z,23.37
2019-03-30T00:59:55.283Z,21.80
2019-03-30T01:05:17.188Z,25.07
2019-03-30T01:10:40.770Z,26.03
2019-03-30T01:15:59.103Z,24.83
2019-03-30T01:21:21.412Z,27.10
2019-03-30T01:26:40.684Z,23.70
2019-03-30T01:31:58.928Z,22.17
2019-03-30T01:37:37.283Z,24.87
2019-03-30T01:42:58.134Z,25.50
2019-03-30T01:48:32.231Z,26.23
2019-03-30T01:54:06.149Z,28.17
2019-03-30T01:59:34.440Z,25.83
2019-03-30T02:04:52.481Z,26.10
2019-03-30T02:10:40.802Z,25.40
2019-03-30T02:16:12.273Z,27.03
2019-03-30T02:21:26.801Z,24.10
2019-03-30T02:26:43.012Z,26.10
2019-03-30T02:31:55.638Z,26.50
2019-03-30T02:37:08.109Z,23.50
2019-03-30T02:42:46.454Z,26.90
2019-03-30T02:48:00.646Z,24.57
2019-03-30T02:53:13.091Z,25.93
2019-03-30T02:58:28.457Z,24.73
2019-03-30T03:04:09.077Z,26.73
2019-03-30T03:09:36.148Z,25.43
2019-03-30T03:14:54.999Z,27.67
2019-03-30T03:20:13.894Z,29.10
2019-03-30T03:25:37.995Z,27.20
2019-03-30T03:30:57.702Z,25.60
2019-03-30T03:36:09.788Z,25.70
2019-03-30T03:41:37.770Z,28.70
2019-03-30T03:46:57.179Z,26.20
2019-03-30T03:52:13.399Z,28.33
2019-03-30T03:57:42.034Z,26.33
2019-03-30T04:03:03.567Z,28.73
2019-03-30T04:08:28.914Z,26.57
2019-03-30T04:13:42.448Z,25.57
2019-03-30T04:18:58.290Z,24.30
2019-03-30T04:24:09.949Z,24.87
2019-03-30T04:29:18.136Z,25.30
2019-03-30T04:34:33.371Z,26.57
2019-03-30T04:39:49.639Z,26.23
2019-03-30T04:45:03.831Z,25.63
2019-03-30T04:50:15.537Z,27.30
2019-03-30T04:55:44.388Z,27.60
2019-03-30T05:00:57.775Z,25.60
2019-03-30T05:06:14.506Z,24.70
2019-03-30T05:11:34.754Z,25.27
2019-03-30T05:16:52.102Z,23.33
2019-03-30T05:22:16.331Z,25.13
2019-03-30T05:27:28.425Z,23.93
2019-03-30T05:32:41.820Z,24.67
2019-03-30T05:38:01.720Z,24.60
2019-03-30T05:43:19.698Z,24.03
2019-03-30T05:48:40.705Z,22.40
2019-03-30T05:54:18.345Z,22.17
2019-03-30T05:59:35.856Z,20.93
2019-03-30T06:05:14.389Z,19.87
2019-03-30T06:10:47.807Z,21.60
2019-03-30T06:16:02.691Z,22.27
2019-03-30T06:21:14.720Z,21.43
2019-03-30T06:26:27.907Z,20.13
2019-03-30T06:31:46.655Z,20.33
2019-03-30T06:37:00.967Z,20.43
2019-03-30T06:42:13.409Z,18.43
2019-03-30T06:47:33.089Z,19.50
2019-03-30T06:52:58.074Z,16.67
2019-03-30T06:58:35.214Z,17.73
2019-03-30T07:03:55.564Z,16.20
2019-03-30T07:09:34.575Z,15.07
2019-03-30T07:14:47.336Z,16.47
2019-03-30T07:20:02.779Z,17.23
2019-03-30T07:25:17.608Z,16.00
2019-03-30T07:30:26.470Z,15.30
2019-03-30T07:35:36.208Z,15.50
2019-03-30T07:40:44.156Z,13.53
2019-03-30T07:46:19.620Z,13.60
2019-03-30T07:51:37.370Z,13.80
2019-03-30T07:57:05.033Z,13.27
2019-03-30T08:02:11.939Z,13.70
2019-03-30T08:07:26.603Z,13.93
2019-03-30T08:18:11.978Z,12.57
2019-03-30T08:23:39.572Z,13.23
2019-03-30T08:28:39.388Z,12.23
2019-03-30T08:34:09.455Z,11.37
2019-03-30T08:39:42.466Z,11.97
2019-03-30T08:44:56.347Z,11.97
2019-03-30T08:50:10.437Z,12.03
2019-03-30T08:55:22.657Z,11.97
2019-03-30T09:00:58.405Z,12.70
2019-03-30T09:06:34.277Z,12.00
2019-03-30T09:11:47.766Z,12.90
2019-03-30T09:16:58.125Z,13.20
2019-03-30T09:22:13.434Z,12.53
2019-03-30T09:27:29.923Z,13.17
2019-03-30T09:32:48.897Z,12.57
2019-03-30T09:38:03.049Z,12.60
2019-03-30T09:43:25.510Z,12.47
2019-03-30T09:49:04.133Z,13.70
2019-03-30T09:54:23.599Z,13.57
2019-03-30T09:59:39.528Z,12.60
2019-03-30T10:04:57.442Z,13.30
2019-03-30T10:10:20.141Z,13.80
2019-03-30T10:15:41.793Z,12.47
2019-03-30T10:21:05.636Z,12.70
2019-03-30T10:26:19.851Z,12.58
2019-03-30T10:31:59.792Z,12.45
2019-03-30T10:37:12.255Z,12.23
2019-03-30T10:42:27.461Z,12.37
2019-03-30T10:47:39.555Z,12.55
2019-03-30T10:52:52.069Z,12.18
2019-03-30T10:58:13.905Z,11.70
2019-03-30T11:03:28.932Z,11.80
2019-03-30T11:08:47.971Z,12.10
2019-03-30T11:14:08.430Z,12.63
2019-03-30T11:19:31.208Z,13.50
2019-03-30T11:24:46.383Z,13.45
2019-03-30T11:30:05.193Z,13.18
2019-03-30T11:35:42.881Z,11.35
2019-03-30T11:40:56.543Z,12.98
2019-03-30T11:46:23.683Z,13.30
2019-03-30T11:51:35.372Z,12.80
2019-03-30T11:56:49.377Z,13.30
2019-03-30T12:02:11.261Z,12.95
2019-03-30T12:07:23.442Z,12.45
2019-03-30T12:12:47.781Z,11.93
2019-03-30T12:18:03.192Z,11.78
2019-03-30T12:23:16.369Z,12.10
2019-03-30T12:28:29.339Z,10.82
2019-03-30T12:33:55.997Z,10.88
2019-03-30T12:39:12.492Z,11.50
2019-03-30T12:44:25.162Z,10.63
2019-03-30T12:49:40.579Z,10.90
2019-03-30T13:00:35.647Z,11.08
2019-03-30T13:05:49.028Z,9.75
2019-03-30T13:11:22.115Z,9.95
2019-03-30T13:16:35.535Z,8.20
2019-03-30T13:21:55.301Z,7.30
2019-03-30T13:27:07.735Z,9.70
2019-03-30T13:32:21.923Z,9.90
2019-03-30T13:37:53.563Z,9.50
2019-03-30T13:43:04.960Z,10.13
2019-03-30T13:48:30.532Z,9.30
2019-03-30T13:53:53.676Z,9.98
2019-03-30T13:59:09.280Z,11.35
2019-03-30T14:04:26.103Z,11.65
2019-03-30T14:09:43.319Z,10.13
2019-03-30T14:14:57.038Z,9.93
2019-03-30T14:20:07.355Z,11.35
2019-03-30T14:25:22.339Z,12.63
2019-03-30T14:30:40.183Z,12.55
2019-03-30T14:35:55.372Z,12.85
2019-03-30T14:41:10.089Z,13.98
2019-03-30T14:46:27.305Z,14.55
2019-03-30T14:52:06.440Z,15.60
2019-03-30T14:57:23.754Z,12.75
2019-03-30T15:02:36.092Z,14.40
2019-03-30T15:07:54.380Z,14.60
2019-03-30T15:13:14.567Z,15.08
2019-03-30T15:18:32.303Z,13.98
2019-03-30T15:23:47.556Z,13.13
2019-03-30T15:29:01.698Z,11.18
2019-03-30T15:34:50.913Z,10.72
2019-03-30T15:40:10.128Z,12.18
2019-03-30T15:45:24.789Z,14.35
2019-03-30T15:50:44.836Z,13.58
2019-03-30T15:55:59.951Z,19.02
2019-03-30T16:01:35.221Z,17.95
2019-03-30T16:06:47.044Z,16.87
2019-03-30T16:12:02.656Z,19.10
2019-03-30T16:17:16.899Z,81.75
2019-03-30T16:22:34.211Z,71.10
2019-03-30T16:27:42.284Z,22.98
2019-03-30T16:32:52.826Z,33.53
2019-03-30T16:38:04.965Z,24.35
2019-03-30T16:43:16.153Z,41.55
2019-03-30T16:48:29.963Z,22.58
2019-03-30T16:53:42.385Z,22.90
2019-03-30T16:58:58.053Z,22.65
2019-03-30T17:04:12.284Z,22.65
2019-03-30T17:09:27.320Z,22.60
2019-03-30T17:14:50.081Z,23.87
2019-03-30T17:20:05.885Z,21.77
2019-03-30T17:25:27.711Z,24.43
2019-03-30T17:30:35.654Z,23.18
2019-03-30T17:35:50.691Z,22.67
2019-03-30T17:41:22.361Z,24.47
2019-03-30T17:46:39.239Z,28.95
2019-03-30T17:51:55.581Z,36.30
2019-03-30T17:57:06.978Z,38.53
2019-03-30T18:02:39.909Z,40.60
2019-03-30T18:08:01.404Z,42.88
2019-03-30T18:13:11.505Z,43.78
2019-03-30T18:18:28.881Z,44.80
2019-03-30T18:23:47.395Z,43.63
2019-03-30T18:29:05.192Z,42.50
2019-03-30T18:34:23.010Z,43.33
2019-03-30T18:39:37.550Z,43.30
2019-03-30T18:44:45.385Z,43.90
2019-03-30T18:50:01.704Z,43.30
2019-03-30T18:55:23.024Z,41.60
2019-03-30T19:00:43.090Z,41.20
2019-03-30T19:05:57.132Z,41.03
2019-03-30T19:11:12.876Z,43.53
2019-03-30T19:16:23.927Z,41.35
2019-03-30T19:21:59.205Z,42.23
2019-03-30T19:27:17.417Z,39.20
2019-03-30T19:32:29.383Z,40.90
2019-03-30T19:37:43.736Z,42.93
2019-03-30T19:42:57.576Z,43.83
2019-03-30T19:48:25.381Z,42.37
2019-03-30T19:53:34.033Z,39.97
2019-03-30T19:58:54.589Z,45.50
2019-03-30T20:04:03.208Z,42.70
2019-03-30T20:09:16.067Z,42.37
2019-03-30T20:14:32.224Z,43.75
2019-03-30T20:20:27.429Z,44.07
2019-03-30T20:25:45.817Z,48.30
2019-03-30T20:30:57.958Z,45.83
2019-03-30T20:36:08.551Z,49.27
2019-03-30T20:41:14.454Z,49.20
2019-03-30T20:46:34.815Z,48.78
2019-03-30T20:51:58.560Z,47.17
2019-03-30T20:57:34.937Z,46.93
2019-03-30T21:02:57.232Z,47.10
2019-03-30T21:08:07.795Z,47.97
2019-03-30T21:13:27.498Z,46.47
2019-03-30T21:19:03.254Z,45.53
2019-03-30T21:24:16.709Z,44.03
2019-03-30T21:29:35.649Z,45.78
2019-03-30T21:34:54.535Z,45.23
2019-03-30T21:40:05.175Z,45.40
2019-03-30T21:45:22.274Z,45.67
2019-03-30T21:50:54.658Z,47.23
2019-03-30T21:56:13.768Z,45.33
2019-03-30T22:01:26.433Z,46.25
2019-03-30T22:06:52.534Z,44.40
2019-03-30T22:12:16.232Z,42.93
2019-03-30T22:17:31.053Z,46.28
2019-03-30T22:22:50.274Z,43.40
2019-03-30T22:28:09.556Z,42.67
2019-03-30T22:33:21.793Z,46.07
2019-03-30T22:38:42.956Z,45.23
2019-03-30T22:44:02.335Z,40.23
2019-03-30T22:49:17.965Z,40.90
2019-03-30T22:54:39.780Z,40.70
2019-03-30T22:59:56.875Z,42.90
2019-03-30T23:05:17.108Z,41.73
2019-03-30T23:10:38.627Z,42.75
2019-03-30T23:15:48.135Z,44.10
2019-03-30T23:21:01.351Z,44.23
2019-03-30T23:26:34.008Z,43.17
2019-03-30T23:31:54.917Z,42.37
2019-03-30T23:37:13.237Z,45.87
2019-03-30T23:42:28.140Z,43.87
2019-03-30T23:47:45.558Z,45.87
2019-03-30T23:53:07.264Z,45.87
2019-03-30T23:58:24.902Z,49.83
